sensor_id;sensor_type;location;lat;lon;timestamp;P1;durP1;ratioP1;P2;durP2;ratioP2
75941;SDS011;64622;46.220;19.878;2023-06-26T00:00:27;17.27;;;11.38;;
75941;SDS011;64622;46.220;19.878;2023-06-26T00:02:54;16.48;;;12.10;;
75941;SDS011;64622;46.220;19.878;2023-06-26T00:05:21;16.87;;;10.63;;
75941;SDS011;64622;46.220;19.878;2023-06-26T00:07:47;17.62;;;11.30;;
75941;SDS011;64622;46.220;19.878;2023-06-26T00:10:14;17.77;;;10.57;;
75941;SDS011;64622;46.220;19.878;2023-06-26T00:12:41;16.35;;;11.12;;
75941;SDS011;64622;46.220;19.878;2023-06-26T00:15:07;16.10;;;11.10;;
75941;SDS011;64622;46.220;19.878;2023-06-26T00:17:34;16.90;;;11.20;;
75941;SDS011;64622;46.220;19.878;2023-06-26T00:20:03;16.90;;;11.52;;
75941;SDS011;64622;46.220;19.878;2023-06-26T00:22:32;18.13;;;11.67;;
75941;SDS011;64622;46.220;19.878;2023-06-26T00:24:59;19.02;;;12.15;;
75941;SDS011;64622;46.220;19.878;2023-06-26T00:27:25;19.20;;;12.45;;
75941;SDS011;64622;46.220;19.878;2023-06-26T00:29:51;18.67;;;12.35;;
75941;SDS011;64622;46.220;19.878;2023-06-26T00:32:19;19.25;;;12.35;;
75941;SDS011;64622;46.220;19.878;2023-06-26T00:34:45;20.40;;;13.27;;
75941;SDS011;64622;46.220;19.878;2023-06-26T00:37:14;19.35;;;13.07;;
75941;SDS011;64622;46.220;19.878;2023-06-26T00:39:41;19.67;;;13.05;;
75941;SDS011;64622;46.220;19.878;2023-06-26T00:42:08;17.55;;;12.30;;
75941;SDS011;64622;46.220;19.878;2023-06-26T00:44:34;20.52;;;12.77;;
75941;SDS011;64622;46.220;19.878;2023-06-26T00:47:01;19.57;;;11.53;;
75941;SDS011;64622;46.220;19.878;2023-06-26T00:49:28;19.25;;;12.55;;
75941;SDS011;64622;46.220;19.878;2023-06-26T00:51:55;20.02;;;12.00;;
75941;SDS011;64622;46.220;19.878;2023-06-26T00:54:23;20.85;;;12.13;;
75941;SDS011;64622;46.220;19.878;2023-06-26T00:56:50;18.27;;;11.60;;
75941;SDS011;64622;46.220;19.878;2023-06-26T00:59:16;18.17;;;11.60;;
75941;SDS011;64622;46.220;19.878;2023-06-26T01:01:43;17.27;;;11.95;;
75941;SDS011;64622;46.220;19.878;2023-06-26T01:04:10;17.40;;;11.68;;
75941;SDS011;64622;46.220;19.878;2023-06-26T01:06:47;19.33;;;12.00;;
75941;SDS011;64622;46.220;19.878;2023-06-26T01:09:17;17.70;;;11.85;;
75941;SDS011;64622;46.220;19.878;2023-06-26T01:11:45;18.37;;;11.40;;
75941;SDS011;64622;46.220;19.878;2023-06-26T01:14:12;17.48;;;11.73;;
75941;SDS011;64622;46.220;19.878;2023-06-26T01:16:39;18.35;;;11.85;;
75941;SDS011;64622;46.220;19.878;2023-06-26T01:19:13;16.70;;;11.45;;
75941;SDS011;64622;46.220;19.878;2023-06-26T01:24:48;17.60;;;11.80;;
75941;SDS011;64622;46.220;19.878;2023-06-26T01:27:37;19.30;;;10.35;;
75941;SDS011;64622;46.220;19.878;2023-06-26T01:30:04;17.87;;;11.00;;
75941;SDS011;64622;46.220;19.878;2023-06-26T01:32:34;19.65;;;11.30;;
75941;SDS011;64622;46.220;19.878;2023-06-26T01:35:02;18.17;;;11.38;;
75941;SDS011;64622;46.220;19.878;2023-06-26T01:37:30;18.10;;;11.40;;
75941;SDS011;64622;46.220;19.878;2023-06-26T01:39:56;18.00;;;10.63;;
75941;SDS011;64622;46.220;19.878;2023-06-26T01:42:23;17.52;;;11.25;;
75941;SDS011;64622;46.220;19.878;2023-06-26T01:44:50;16.80;;;11.30;;
75941;SDS011;64622;46.220;19.878;2023-06-26T01:47:19;17.20;;;11.57;;
75941;SDS011;64622;46.220;19.878;2023-06-26T01:55:01;18.02;;;12.05;;
75941;SDS011;64622;46.220;19.878;2023-06-26T01:57:35;19.67;;;12.82;;
75941;SDS011;64622;46.220;19.878;2023-06-26T02:00:03;16.60;;;11.35;;
75941;SDS011;64622;46.220;19.878;2023-06-26T02:02:40;17.43;;;11.33;;
75941;SDS011;64622;46.220;19.878;2023-06-26T02:05:12;21.83;;;12.32;;
75941;SDS011;64622;46.220;19.878;2023-06-26T02:07:39;19.70;;;12.02;;
75941;SDS011;64622;46.220;19.878;2023-06-26T02:10:07;19.12;;;12.93;;
75941;SDS011;64622;46.220;19.878;2023-06-26T02:12:35;18.10;;;11.88;;
75941;SDS011;64622;46.220;19.878;2023-06-26T02:15:03;21.47;;;13.30;;
75941;SDS011;64622;46.220;19.878;2023-06-26T02:17:32;23.87;;;12.63;;
75941;SDS011;64622;46.220;19.878;2023-06-26T02:19:59;21.83;;;13.02;;
75941;SDS011;64622;46.220;19.878;2023-06-26T02:22:25;20.62;;;12.73;;
75941;SDS011;64622;46.220;19.878;2023-06-26T02:24:54;21.23;;;12.50;;
75941;SDS011;64622;46.220;19.878;2023-06-26T02:27:21;20.73;;;13.93;;
75941;SDS011;64622;46.220;19.878;2023-06-26T02:29:48;23.08;;;13.68;;
75941;SDS011;64622;46.220;19.878;2023-06-26T02:32:14;21.58;;;13.00;;
75941;SDS011;64622;46.220;19.878;2023-06-26T02:34:41;21.70;;;13.15;;
75941;SDS011;64622;46.220;19.878;2023-06-26T02:37:07;24.10;;;14.10;;
75941;SDS011;64622;46.220;19.878;2023-06-26T02:39:35;64.27;;;16.33;;
75941;SDS011;64622;46.220;19.878;2023-06-26T02:42:01;28.38;;;12.82;;
75941;SDS011;64622;46.220;19.878;2023-06-26T02:44:28;24.52;;;14.35;;
75941;SDS011;64622;46.220;19.878;2023-06-26T02:46:54;23.92;;;13.27;;
75941;SDS011;64622;46.220;19.878;2023-06-26T02:49:21;23.23;;;13.32;;
75941;SDS011;64622;46.220;19.878;2023-06-26T02:51:48;25.13;;;13.97;;
75941;SDS011;64622;46.220;19.878;2023-06-26T02:54:15;22.67;;;14.07;;
75941;SDS011;64622;46.220;19.878;2023-06-26T02:56:42;21.48;;;12.85;;
75941;SDS011;64622;46.220;19.878;2023-06-26T02:59:09;22.25;;;14.05;;
75941;SDS011;64622;46.220;19.878;2023-06-26T03:01:36;27.05;;;14.45;;
75941;SDS011;64622;46.220;19.878;2023-06-26T03:04:03;22.97;;;13.33;;
75941;SDS011;64622;46.220;19.878;2023-06-26T03:06:33;26.25;;;14.70;;
75941;SDS011;64622;46.220;19.878;2023-06-26T03:09:00;23.75;;;14.30;;
75941;SDS011;64622;46.220;19.878;2023-06-26T03:11:27;27.17;;;14.82;;
75941;SDS011;64622;46.220;19.878;2023-06-26T03:13:55;23.30;;;13.05;;
75941;SDS011;64622;46.220;19.878;2023-06-26T03:16:22;20.47;;;12.57;;
75941;SDS011;64622;46.220;19.878;2023-06-26T03:18:48;21.83;;;12.43;;
75941;SDS011;64622;46.220;19.878;2023-06-26T03:21:15;18.42;;;12.15;;
75941;SDS011;64622;46.220;19.878;2023-06-26T03:23:42;17.83;;;11.77;;
75941;SDS011;64622;46.220;19.878;2023-06-26T03:26:09;19.80;;;11.90;;
75941;SDS011;64622;46.220;19.878;2023-06-26T03:28:36;21.23;;;12.07;;
75941;SDS011;64622;46.220;19.878;2023-06-26T03:31:03;21.10;;;11.70;;
75941;SDS011;64622;46.220;19.878;2023-06-26T03:33:31;15.80;;;10.27;;
75941;SDS011;64622;46.220;19.878;2023-06-26T03:35:57;17.65;;;10.85;;
75941;SDS011;64622;46.220;19.878;2023-06-26T03:38:25;18.00;;;10.00;;
75941;SDS011;64622;46.220;19.878;2023-06-26T03:40:52;15.90;;;9.70;;
75941;SDS011;64622;46.220;19.878;2023-06-26T03:43:19;14.43;;;9.60;;
75941;SDS011;64622;46.220;19.878;2023-06-26T03:45:46;15.40;;;9.23;;
75941;SDS011;64622;46.220;19.878;2023-06-26T03:48:12;15.45;;;9.27;;
75941;SDS011;64622;46.220;19.878;2023-06-26T03:50:40;13.60;;;8.57;;
75941;SDS011;64622;46.220;19.878;2023-06-26T03:53:07;14.17;;;8.37;;
75941;SDS011;64622;46.220;19.878;2023-06-26T03:55:33;13.73;;;8.48;;
75941;SDS011;64622;46.220;19.878;2023-06-26T03:58:00;15.70;;;9.25;;
75941;SDS011;64622;46.220;19.878;2023-06-26T04:00:27;15.18;;;9.07;;
75941;SDS011;64622;46.220;19.878;2023-06-26T04:02:54;15.07;;;9.18;;
75941;SDS011;64622;46.220;19.878;2023-06-26T04:05:21;14.53;;;8.90;;
75941;SDS011;64622;46.220;19.878;2023-06-26T04:07:51;16.67;;;9.25;;
75941;SDS011;64622;46.220;19.878;2023-06-26T04:10:18;13.57;;;8.82;;
75941;SDS011;64622;46.220;19.878;2023-06-26T04:12:47;15.98;;;8.60;;
75941;SDS011;64622;46.220;19.878;2023-06-26T04:15:14;14.43;;;8.82;;
75941;SDS011;64622;46.220;19.878;2023-06-26T04:17:41;15.17;;;8.43;;
75941;SDS011;64622;46.220;19.878;2023-06-26T04:20:07;13.82;;;8.25;;
75941;SDS011;64622;46.220;19.878;2023-06-26T04:22:35;14.23;;;8.60;;
75941;SDS011;64622;46.220;19.878;2023-06-26T04:25:02;13.15;;;8.00;;
75941;SDS011;64622;46.220;19.878;2023-06-26T04:27:30;12.98;;;7.60;;
75941;SDS011;64622;46.220;19.878;2023-06-26T04:29:56;11.30;;;7.03;;
75941;SDS011;64622;46.220;19.878;2023-06-26T04:32:23;12.75;;;7.37;;
75941;SDS011;64622;46.220;19.878;2023-06-26T04:34:50;14.05;;;7.60;;
75941;SDS011;64622;46.220;19.878;2023-06-26T04:37:16;13.48;;;7.60;;
75941;SDS011;64622;46.220;19.878;2023-06-26T04:39:43;13.23;;;6.87;;
75941;SDS011;64622;46.220;19.878;2023-06-26T04:42:10;11.10;;;6.93;;
75941;SDS011;64622;46.220;19.878;2023-06-26T04:44:38;13.05;;;7.20;;
75941;SDS011;64622;46.220;19.878;2023-06-26T04:47:05;15.52;;;7.30;;
75941;SDS011;64622;46.220;19.878;2023-06-26T04:49:31;12.15;;;6.82;;
75941;SDS011;64622;46.220;19.878;2023-06-26T04:51:58;15.27;;;6.95;;
75941;SDS011;64622;46.220;19.878;2023-06-26T04:54:26;13.30;;;6.80;;
75941;SDS011;64622;46.220;19.878;2023-06-26T04:56:54;11.68;;;6.72;;
75941;SDS011;64622;46.220;19.878;2023-06-26T04:59:20;12.75;;;6.90;;
75941;SDS011;64622;46.220;19.878;2023-06-26T05:01:47;12.18;;;7.12;;
75941;SDS011;64622;46.220;19.878;2023-06-26T05:04:14;15.30;;;7.25;;
75941;SDS011;64622;46.220;19.878;2023-06-26T05:06:42;11.13;;;6.73;;
75941;SDS011;64622;46.220;19.878;2023-06-26T05:09:08;14.05;;;7.37;;
75941;SDS011;64622;46.220;19.878;2023-06-26T05:11:36;13.55;;;6.85;;
75941;SDS011;64622;46.220;19.878;2023-06-26T05:14:03;14.25;;;7.28;;
75941;SDS011;64622;46.220;19.878;2023-06-26T05:16:33;12.85;;;6.80;;
75941;SDS011;64622;46.220;19.878;2023-06-26T05:19:00;11.50;;;6.83;;
75941;SDS011;64622;46.220;19.878;2023-06-26T05:21:28;19.87;;;7.35;;
75941;SDS011;64622;46.220;19.878;2023-06-26T05:23:55;21.52;;;7.40;;
75941;SDS011;64622;46.220;19.878;2023-06-26T05:26:23;20.37;;;7.97;;
75941;SDS011;64622;46.220;19.878;2023-06-26T05:28:50;14.05;;;7.40;;
75941;SDS011;64622;46.220;19.878;2023-06-26T05:31:17;14.77;;;7.00;;
75941;SDS011;64622;46.220;19.878;2023-06-26T05:33:43;14.20;;;8.32;;
75941;SDS011;64622;46.220;19.878;2023-06-26T05:36:11;14.55;;;7.93;;
75941;SDS011;64622;46.220;19.878;2023-06-26T05:38:40;14.13;;;8.10;;
75941;SDS011;64622;46.220;19.878;2023-06-26T05:41:06;18.25;;;8.27;;
75941;SDS011;64622;46.220;19.878;2023-06-26T05:43:34;13.47;;;7.77;;
75941;SDS011;64622;46.220;19.878;2023-06-26T05:46:00;13.95;;;7.57;;
75941;SDS011;64622;46.220;19.878;2023-06-26T05:48:27;15.82;;;7.60;;
75941;SDS011;64622;46.220;19.878;2023-06-26T05:50:54;17.35;;;7.93;;
75941;SDS011;64622;46.220;19.878;2023-06-26T05:53:21;18.33;;;7.43;;
75941;SDS011;64622;46.220;19.878;2023-06-26T05:55:48;22.57;;;7.57;;
75941;SDS011;64622;46.220;19.878;2023-06-26T05:58:14;15.23;;;7.37;;
75941;SDS011;64622;46.220;19.878;2023-06-26T06:00:43;15.38;;;7.62;;
75941;SDS011;64622;46.220;19.878;2023-06-26T06:03:10;12.85;;;7.70;;
75941;SDS011;64622;46.220;19.878;2023-06-26T06:05:37;14.55;;;7.25;;
75941;SDS011;64622;46.220;19.878;2023-06-26T06:08:03;11.73;;;6.83;;
75941;SDS011;64622;46.220;19.878;2023-06-26T06:10:30;17.05;;;7.07;;
75941;SDS011;64622;46.220;19.878;2023-06-26T06:12:57;14.13;;;6.72;;
75941;SDS011;64622;46.220;19.878;2023-06-26T06:15:23;11.95;;;6.18;;
75941;SDS011;64622;46.220;19.878;2023-06-26T06:17:50;11.80;;;6.97;;
75941;SDS011;64622;46.220;19.878;2023-06-26T06:20:17;13.23;;;6.97;;
75941;SDS011;64622;46.220;19.878;2023-06-26T06:22:46;30.52;;;7.03;;
75941;SDS011;64622;46.220;19.878;2023-06-26T06:25:14;12.55;;;6.40;;
75941;SDS011;64622;46.220;19.878;2023-06-26T06:27:41;11.23;;;6.50;;
75941;SDS011;64622;46.220;19.878;2023-06-26T06:30:08;12.20;;;6.22;;
75941;SDS011;64622;46.220;19.878;2023-06-26T06:32:35;12.57;;;6.57;;
75941;SDS011;64622;46.220;19.878;2023-06-26T06:35:02;12.70;;;6.70;;
75941;SDS011;64622;46.220;19.878;2023-06-26T06:37:36;13.68;;;6.55;;
75941;SDS011;64622;46.220;19.878;2023-06-26T06:40:09;11.85;;;6.10;;
75941;SDS011;64622;46.220;19.878;2023-06-26T06:42:36;14.00;;;5.75;;
75941;SDS011;64622;46.220;19.878;2023-06-26T06:45:03;11.30;;;6.40;;
75941;SDS011;64622;46.220;19.878;2023-06-26T06:47:33;9.35;;;5.55;;
75941;SDS011;64622;46.220;19.878;2023-06-26T06:50:01;71.03;;;9.05;;
75941;SDS011;64622;46.220;19.878;2023-06-26T06:52:37;17.50;;;6.37;;
75941;SDS011;64622;46.220;19.878;2023-06-26T06:55:07;12.77;;;6.57;;
75941;SDS011;64622;46.220;19.878;2023-06-26T06:57:37;12.27;;;6.37;;
75941;SDS011;64622;46.220;19.878;2023-06-26T07:00:06;14.93;;;6.43;;
75941;SDS011;64622;46.220;19.878;2023-06-26T07:02:38;10.23;;;6.22;;
75941;SDS011;64622;46.220;19.878;2023-06-26T07:05:06;12.13;;;6.95;;
75941;SDS011;64622;46.220;19.878;2023-06-26T07:07:33;15.15;;;6.47;;
75941;SDS011;64622;46.220;19.878;2023-06-26T07:10:02;13.00;;;5.97;;
75941;SDS011;64622;46.220;19.878;2023-06-26T07:12:39;11.50;;;6.28;;
75941;SDS011;64622;46.220;19.878;2023-06-26T07:15:06;13.32;;;5.82;;
75941;SDS011;64622;46.220;19.878;2023-06-26T07:17:33;10.02;;;5.75;;
75941;SDS011;64622;46.220;19.878;2023-06-26T07:20:01;10.32;;;5.68;;
75941;SDS011;64622;46.220;19.878;2023-06-26T07:22:32;10.43;;;4.93;;
75941;SDS011;64622;46.220;19.878;2023-06-26T07:24:59;12.48;;;6.32;;
75941;SDS011;64622;46.220;19.878;2023-06-26T07:27:25;10.95;;;5.18;;
75941;SDS011;64622;46.220;19.878;2023-06-26T07:29:52;11.40;;;5.57;;
75941;SDS011;64622;46.220;19.878;2023-06-26T07:32:18;9.65;;;5.57;;
75941;SDS011;64622;46.220;19.878;2023-06-26T07:34:45;11.87;;;6.40;;
75941;SDS011;64622;46.220;19.878;2023-06-26T07:37:12;10.63;;;5.78;;
75941;SDS011;64622;46.220;19.878;2023-06-26T07:39:38;11.57;;;5.40;;
75941;SDS011;64622;46.220;19.878;2023-06-26T07:42:04;10.70;;;5.07;;
75941;SDS011;64622;46.220;19.878;2023-06-26T07:44:31;10.48;;;4.72;;
75941;SDS011;64622;46.220;19.878;2023-06-26T07:46:58;10.57;;;5.23;;
75941;SDS011;64622;46.220;19.878;2023-06-26T07:49:24;10.32;;;5.20;;
75941;SDS011;64622;46.220;19.878;2023-06-26T07:51:51;9.10;;;3.83;;
75941;SDS011;64622;46.220;19.878;2023-06-26T07:54:18;9.57;;;4.00;;
75941;SDS011;64622;46.220;19.878;2023-06-26T07:59:22;8.67;;;4.00;;
75941;SDS011;64622;46.220;19.878;2023-06-26T08:01:50;8.23;;;4.00;;
75941;SDS011;64622;46.220;19.878;2023-06-26T08:04:18;38.65;;;5.97;;
75941;SDS011;64622;46.220;19.878;2023-06-26T08:06:50;24.42;;;5.37;;
75941;SDS011;64622;46.220;19.878;2023-06-26T08:09:19;9.07;;;3.47;;
75941;SDS011;64622;46.220;19.878;2023-06-26T08:11:46;10.37;;;3.97;;
75941;SDS011;64622;46.220;19.878;2023-06-26T08:14:13;7.65;;;3.40;;
75941;SDS011;64622;46.220;19.878;2023-06-26T08:16:40;8.45;;;3.40;;
75941;SDS011;64622;46.220;19.878;2023-06-26T08:19:06;8.55;;;3.70;;
75941;SDS011;64622;46.220;19.878;2023-06-26T08:21:33;9.55;;;3.78;;
75941;SDS011;64622;46.220;19.878;2023-06-26T08:24:01;9.63;;;4.27;;
75941;SDS011;64622;46.220;19.878;2023-06-26T08:26:28;9.48;;;4.70;;
75941;SDS011;64622;46.220;19.878;2023-06-26T08:28:54;9.15;;;3.87;;
75941;SDS011;64622;46.220;19.878;2023-06-26T08:31:21;10.48;;;4.15;;
75941;SDS011;64622;46.220;19.878;2023-06-26T08:33:48;12.00;;;4.50;;
75941;SDS011;64622;46.220;19.878;2023-06-26T08:36:14;9.57;;;4.87;;
75941;SDS011;64622;46.220;19.878;2023-06-26T08:38:41;10.75;;;4.90;;
75941;SDS011;64622;46.220;19.878;2023-06-26T08:41:08;9.73;;;4.60;;
75941;SDS011;64622;46.220;19.878;2023-06-26T08:43:35;13.50;;;4.60;;
75941;SDS011;64622;46.220;19.878;2023-06-26T08:46:02;10.68;;;4.57;;
75941;SDS011;64622;46.220;19.878;2023-06-26T08:48:32;8.47;;;4.37;;
75941;SDS011;64622;46.220;19.878;2023-06-26T08:51:09;10.10;;;4.50;;
75941;SDS011;64622;46.220;19.878;2023-06-26T08:53:49;9.85;;;5.10;;
75941;SDS011;64622;46.220;19.878;2023-06-26T08:56:21;10.57;;;5.18;;
75941;SDS011;64622;46.220;19.878;2023-06-26T08:58:48;9.98;;;5.20;;
75941;SDS011;64622;46.220;19.878;2023-06-26T09:01:15;9.63;;;5.30;;
75941;SDS011;64622;46.220;19.878;2023-06-26T09:03:43;10.43;;;4.50;;
75941;SDS011;64622;46.220;19.878;2023-06-26T09:06:10;8.77;;;4.50;;
75941;SDS011;64622;46.220;19.878;2023-06-26T09:08:36;10.32;;;4.68;;
75941;SDS011;64622;46.220;19.878;2023-06-26T09:11:03;9.63;;;4.78;;
75941;SDS011;64622;46.220;19.878;2023-06-26T09:13:30;8.83;;;4.47;;
75941;SDS011;64622;46.220;19.878;2023-06-26T09:15:57;8.75;;;4.62;;
75941;SDS011;64622;46.220;19.878;2023-06-26T09:18:24;9.15;;;4.90;;
75941;SDS011;64622;46.220;19.878;2023-06-26T09:20:51;59.15;;;7.47;;
75941;SDS011;64622;46.220;19.878;2023-06-26T09:23:18;10.50;;;5.10;;
75941;SDS011;64622;46.220;19.878;2023-06-26T09:25:46;9.53;;;5.10;;
75941;SDS011;64622;46.220;19.878;2023-06-26T09:28:13;9.43;;;5.00;;
75941;SDS011;64622;46.220;19.878;2023-06-26T09:30:40;11.40;;;5.47;;
75941;SDS011;64622;46.220;19.878;2023-06-26T09:33:17;9.57;;;5.28;;
75941;SDS011;64622;46.220;19.878;2023-06-26T09:35:45;9.05;;;5.10;;
75941;SDS011;64622;46.220;19.878;2023-06-26T09:38:12;8.43;;;4.53;;
75941;SDS011;64622;46.220;19.878;2023-06-26T09:40:40;10.30;;;4.82;;
75941;SDS011;64622;46.220;19.878;2023-06-26T09:43:07;11.20;;;5.55;;
75941;SDS011;64622;46.220;19.878;2023-06-26T09:45:36;10.75;;;5.25;;
75941;SDS011;64622;46.220;19.878;2023-06-26T09:48:03;8.82;;;4.80;;
75941;SDS011;64622;46.220;19.878;2023-06-26T09:50:32;11.97;;;5.07;;
75941;SDS011;64622;46.220;19.878;2023-06-26T09:53:07;8.95;;;5.00;;
75941;SDS011;64622;46.220;19.878;2023-06-26T09:55:35;10.43;;;5.25;;
75941;SDS011;64622;46.220;19.878;2023-06-26T09:58:06;9.90;;;5.07;;
75941;SDS011;64622;46.220;19.878;2023-06-26T10:00:35;9.00;;;5.20;;
75941;SDS011;64622;46.220;19.878;2023-06-26T10:03:02;10.53;;;5.87;;
75941;SDS011;64622;46.220;19.878;2023-06-26T10:05:29;10.40;;;5.70;;
75941;SDS011;64622;46.220;19.878;2023-06-26T10:07:55;10.48;;;4.65;;
75941;SDS011;64622;46.220;19.878;2023-06-26T10:10:23;9.20;;;4.55;;
75941;SDS011;64622;46.220;19.878;2023-06-26T10:12:54;9.68;;;4.32;;
75941;SDS011;64622;46.220;19.878;2023-06-26T10:15:30;8.70;;;4.73;;
75941;SDS011;64622;46.220;19.878;2023-06-26T10:17:57;10.13;;;4.28;;
75941;SDS011;64622;46.220;19.878;2023-06-26T10:20:24;19.98;;;5.40;;
75941;SDS011;64622;46.220;19.878;2023-06-26T10:22:53;12.88;;;4.85;;
75941;SDS011;64622;46.220;19.878;2023-06-26T10:25:24;9.90;;;4.37;;
75941;SDS011;64622;46.220;19.878;2023-06-26T10:27:54;8.47;;;3.93;;
75941;SDS011;64622;46.220;19.878;2023-06-26T10:30:24;8.90;;;4.20;;
75941;SDS011;64622;46.220;19.878;2023-06-26T10:32:54;10.15;;;3.97;;
75941;SDS011;64622;46.220;19.878;2023-06-26T10:35:21;8.13;;;4.20;;
75941;SDS011;64622;46.220;19.878;2023-06-26T10:37:50;8.50;;;4.30;;
75941;SDS011;64622;46.220;19.878;2023-06-26T10:40:26;9.23;;;4.90;;
75941;SDS011;64622;46.220;19.878;2023-06-26T10:43:13;10.38;;;4.35;;
75941;SDS011;64622;46.220;19.878;2023-06-26T10:45:45;9.90;;;4.82;;
75941;SDS011;64622;46.220;19.878;2023-06-26T10:48:19;11.73;;;4.10;;
75941;SDS011;64622;46.220;19.878;2023-06-26T10:50:47;9.88;;;4.80;;
75941;SDS011;64622;46.220;19.878;2023-06-26T10:56:04;10.32;;;4.35;;
75941;SDS011;64622;46.220;19.878;2023-06-26T11:03:42;14.70;;;5.12;;
75941;SDS011;64622;46.220;19.878;2023-06-26T11:06:15;9.77;;;5.03;;
75941;SDS011;64622;46.220;19.878;2023-06-26T11:08:44;9.38;;;4.35;;
75941;SDS011;64622;46.220;19.878;2023-06-26T11:11:21;9.93;;;4.47;;
75941;SDS011;64622;46.220;19.878;2023-06-26T11:13:48;11.93;;;4.53;;
75941;SDS011;64622;46.220;19.878;2023-06-26T11:16:15;8.25;;;4.03;;
75941;SDS011;64622;46.220;19.878;2023-06-26T11:18:42;7.60;;;3.37;;
75941;SDS011;64622;46.220;19.878;2023-06-26T11:21:09;8.73;;;4.03;;
75941;SDS011;64622;46.220;19.878;2023-06-26T11:23:40;8.18;;;3.75;;
75941;SDS011;64622;46.220;19.878;2023-06-26T11:28:50;9.02;;;4.20;;
75941;SDS011;64622;46.220;19.878;2023-06-26T11:31:28;11.03;;;4.40;;
75941;SDS011;64622;46.220;19.878;2023-06-26T11:33:56;12.00;;;4.07;;
75941;SDS011;64622;46.220;19.878;2023-06-26T11:36:26;9.00;;;4.20;;
75941;SDS011;64622;46.220;19.878;2023-06-26T11:38:53;9.90;;;4.47;;
75941;SDS011;64622;46.220;19.878;2023-06-26T11:41:30;8.23;;;3.58;;
75941;SDS011;64622;46.220;19.878;2023-06-26T11:44:04;86.30;;;8.00;;
75941;SDS011;64622;46.220;19.878;2023-06-26T11:46:36;12.65;;;3.90;;
75941;SDS011;64622;46.220;19.878;2023-06-26T11:49:06;8.60;;;3.80;;
75941;SDS011;64622;46.220;19.878;2023-06-26T11:51:34;10.05;;;3.80;;
75941;SDS011;64622;46.220;19.878;2023-06-26T11:54:02;11.05;;;3.60;;
75941;SDS011;64622;46.220;19.878;2023-06-26T11:56:30;9.17;;;4.00;;
75941;SDS011;64622;46.220;19.878;2023-06-26T11:58:57;9.35;;;3.72;;
75941;SDS011;64622;46.220;19.878;2023-06-26T12:01:34;8.82;;;3.75;;
75941;SDS011;64622;46.220;19.878;2023-06-26T12:04:03;7.87;;;3.95;;
75941;SDS011;64622;46.220;19.878;2023-06-26T12:06:31;9.23;;;3.75;;
75941;SDS011;64622;46.220;19.878;2023-06-26T12:09:13;9.07;;;3.50;;
75941;SDS011;64622;46.220;19.878;2023-06-26T12:11:41;10.50;;;3.87;;
75941;SDS011;64622;46.220;19.878;2023-06-26T12:14:09;7.78;;;3.70;;
75941;SDS011;64622;46.220;19.878;2023-06-26T12:16:37;8.85;;;3.72;;
75941;SDS011;64622;46.220;19.878;2023-06-26T12:19:06;10.65;;;4.05;;
75941;SDS011;64622;46.220;19.878;2023-06-26T12:24:04;8.43;;;3.50;;
75941;SDS011;64622;46.220;19.878;2023-06-26T12:26:31;10.93;;;3.65;;
75941;SDS011;64622;46.220;19.878;2023-06-26T12:29:14;9.30;;;3.45;;
75941;SDS011;64622;46.220;19.878;2023-06-26T12:31:49;7.78;;;3.20;;
75941;SDS011;64622;46.220;19.878;2023-06-26T12:34:18;9.20;;;3.10;;
75941;SDS011;64622;46.220;19.878;2023-06-26T12:36:50;7.60;;;3.17;;
75941;SDS011;64622;46.220;19.878;2023-06-26T12:39:18;7.30;;;2.90;;
75941;SDS011;64622;46.220;19.878;2023-06-26T12:41:53;7.32;;;2.90;;
75941;SDS011;64622;46.220;19.878;2023-06-26T12:44:23;7.47;;;3.15;;
75941;SDS011;64622;46.220;19.878;2023-06-26T12:47:02;8.47;;;2.90;;
75941;SDS011;64622;46.220;19.878;2023-06-26T12:49:42;9.13;;;2.80;;
75941;SDS011;64622;46.220;19.878;2023-06-26T12:52:10;8.25;;;2.90;;
75941;SDS011;64622;46.220;19.878;2023-06-26T12:54:39;7.07;;;2.37;;
75941;SDS011;64622;46.220;19.878;2023-06-26T12:57:07;6.45;;;2.42;;
75941;SDS011;64622;46.220;19.878;2023-06-26T12:59:35;6.67;;;2.63;;
75941;SDS011;64622;46.220;19.878;2023-06-26T13:02:03;9.52;;;3.15;;
75941;SDS011;64622;46.220;19.878;2023-06-26T13:04:30;6.90;;;2.67;;
75941;SDS011;64622;46.220;19.878;2023-06-26T13:06:58;7.93;;;3.00;;
75941;SDS011;64622;46.220;19.878;2023-06-26T13:09:25;7.43;;;2.95;;
75941;SDS011;64622;46.220;19.878;2023-06-26T13:11:52;7.13;;;2.70;;
75941;SDS011;64622;46.220;19.878;2023-06-26T13:14:19;8.32;;;2.58;;
75941;SDS011;64622;46.220;19.878;2023-06-26T13:16:46;7.03;;;2.70;;
75941;SDS011;64622;46.220;19.878;2023-06-26T13:19:12;6.75;;;2.87;;
75941;SDS011;64622;46.220;19.878;2023-06-26T13:21:39;7.62;;;2.95;;
75941;SDS011;64622;46.220;19.878;2023-06-26T13:24:06;8.70;;;2.93;;
75941;SDS011;64622;46.220;19.878;2023-06-26T13:26:33;6.62;;;2.62;;
75941;SDS011;64622;46.220;19.878;2023-06-26T13:29:00;7.00;;;2.90;;
75941;SDS011;64622;46.220;19.878;2023-06-26T13:31:27;8.07;;;2.83;;
75941;SDS011;64622;46.220;19.878;2023-06-26T13:33:56;6.10;;;1.95;;
75941;SDS011;64622;46.220;19.878;2023-06-26T13:36:24;6.10;;;2.17;;
75941;SDS011;64622;46.220;19.878;2023-06-26T13:38:51;6.97;;;2.22;;
75941;SDS011;64622;46.220;19.878;2023-06-26T13:41:22;6.65;;;2.40;;
75941;SDS011;64622;46.220;19.878;2023-06-26T13:43:49;6.45;;;2.37;;
75941;SDS011;64622;46.220;19.878;2023-06-26T13:46:16;6.85;;;2.33;;
75941;SDS011;64622;46.220;19.878;2023-06-26T13:48:44;6.53;;;2.30;;
75941;SDS011;64622;46.220;19.878;2023-06-26T13:51:11;7.40;;;2.30;;
75941;SDS011;64622;46.220;19.878;2023-06-26T13:53:38;7.55;;;2.40;;
75941;SDS011;64622;46.220;19.878;2023-06-26T13:56:04;7.40;;;2.40;;
75941;SDS011;64622;46.220;19.878;2023-06-26T13:58:31;8.52;;;2.80;;
75941;SDS011;64622;46.220;19.878;2023-06-26T14:00:59;11.20;;;2.67;;
75941;SDS011;64622;46.220;19.878;2023-06-26T14:03:26;7.57;;;2.30;;
75941;SDS011;64622;46.220;19.878;2023-06-26T14:05:54;6.93;;;2.55;;
75941;SDS011;64622;46.220;19.878;2023-06-26T14:08:21;10.13;;;2.50;;
75941;SDS011;64622;46.220;19.878;2023-06-26T14:10:48;6.37;;;2.50;;
75941;SDS011;64622;46.220;19.878;2023-06-26T14:13:14;6.43;;;2.40;;
75941;SDS011;64622;46.220;19.878;2023-06-26T14:15:42;6.80;;;2.30;;
75941;SDS011;64622;46.220;19.878;2023-06-26T14:18:09;8.43;;;2.37;;
75941;SDS011;64622;46.220;19.878;2023-06-26T14:20:35;6.70;;;2.00;;
75941;SDS011;64622;46.220;19.878;2023-06-26T14:23:02;7.32;;;2.33;;
75941;SDS011;64622;46.220;19.878;2023-06-26T14:25:29;7.57;;;2.20;;
75941;SDS011;64622;46.220;19.878;2023-06-26T14:27:56;8.40;;;2.50;;
75941;SDS011;64622;46.220;19.878;2023-06-26T14:30:24;6.62;;;2.20;;
75941;SDS011;64622;46.220;19.878;2023-06-26T14:32:51;15.40;;;3.03;;
75941;SDS011;64622;46.220;19.878;2023-06-26T14:35:17;7.43;;;2.58;;
75941;SDS011;64622;46.220;19.878;2023-06-26T14:37:44;7.30;;;2.17;;
75941;SDS011;64622;46.220;19.878;2023-06-26T14:40:11;7.68;;;2.40;;
75941;SDS011;64622;46.220;19.878;2023-06-26T14:42:38;11.65;;;2.37;;
75941;SDS011;64622;46.220;19.878;2023-06-26T14:45:05;8.68;;;2.35;;
75941;SDS011;64622;46.220;19.878;2023-06-26T14:47:32;7.53;;;2.53;;
75941;SDS011;64622;46.220;19.878;2023-06-26T14:49:58;9.13;;;2.50;;
75941;SDS011;64622;46.220;19.878;2023-06-26T14:52:26;7.40;;;2.80;;